createdAt,value
2022-09-16T00:01:19.655Z,7.20
2022-09-16T00:03:49.435Z,6.30
2022-09-16T00:06:21.994Z,9.90
2022-09-16T00:08:50.157Z,7.70
2022-09-16T00:11:19.038Z,8.30
2022-09-16T00:13:50.861Z,7.70
2022-09-16T00:16:24.655Z,8.60
2022-09-16T00:18:57.642Z,9.70
2022-09-16T00:21:25.890Z,8.20
2022-09-16T00:23:55.099Z,6.20
2022-09-16T00:26:23.642Z,7.60
2022-09-16T00:28:51.629Z,6.60
2022-09-16T00:31:19.431Z,8.10
2022-09-16T00:33:49.031Z,8.10
2022-09-16T00:36:19.125Z,9.90
2022-09-16T00:38:54.999Z,7.90
2022-09-16T00:41:27.116Z,6.60
2022-09-16T00:44:06.711Z,6.60
2022-09-16T00:46:45.822Z,10.60
2022-09-16T00:49:20.661Z,7.20
2022-09-16T00:51:49.734Z,9.30
2022-09-16T00:54:17.790Z,8.80
2022-09-16T00:56:47.089Z,8.90
2022-09-16T00:59:27.681Z,8.90
2022-09-16T01:01:56.725Z,6.60
2022-09-16T01:04:35.406Z,7.80
2022-09-16T01:07:03.651Z,7.70
2022-09-16T01:09:31.386Z,8.00
2022-09-16T01:11:59.683Z,7.30
2022-09-16T01:14:46.910Z,7.40
2022-09-16T01:17:47.031Z,6.60
2022-09-16T01:20:39.465Z,6.80
2022-09-16T01:23:33.869Z,6.30
2022-09-16T01:26:24.095Z,6.70
2022-09-16T01:29:13.411Z,6.50
2022-09-16T01:32:03.811Z,8.10
2022-09-16T01:34:42.631Z,6.70
2022-09-16T01:37:39.595Z,6.20
2022-09-16T01:40:29.306Z,6.30
2022-09-16T01:43:18.733Z,10.80
2022-09-16T01:46:00.936Z,7.10
2022-09-16T01:48:45.178Z,6.80
2022-09-16T01:51:31.451Z,8.40
2022-09-16T01:54:18.930Z,6.60
2022-09-16T01:57:16.685Z,7.30
2022-09-16T02:00:03.617Z,6.20
2022-09-16T02:02:45.615Z,6.30
2022-09-16T02:05:28.832Z,8.20
2022-09-16T02:08:01.591Z,6.30
2022-09-16T02:10:40.965Z,7.20
2022-09-16T02:13:19.394Z,5.90
2022-09-16T02:15:49.937Z,8.10
2022-09-16T02:18:21.433Z,6.00
2022-09-16T02:20:49.343Z,10.50
2022-09-16T02:23:23.860Z,7.10
2022-09-16T02:25:51.783Z,7.20
2022-09-16T02:28:25.362Z,7.30
2022-09-16T02:30:55.537Z,6.20
2022-09-16T02:33:24.328Z,6.20
2022-09-16T02:35:53.383Z,7.70
2022-09-16T02:38:46.135Z,7.40
2022-09-16T02:41:15.037Z,5.10
2022-09-16T02:43:43.203Z,5.40
2022-09-16T02:46:48.581Z,8.20
2022-09-16T02:49:35.555Z,7.20
2022-09-16T02:52:34.974Z,5.90
2022-09-16T02:55:07.950Z,6.20
2022-09-16T02:57:36.141Z,9.50
2022-09-16T03:00:05.903Z,6.00
2022-09-16T03:02:37.019Z,7.10
2022-09-16T03:05:05.458Z,6.60
2022-09-16T03:07:34.142Z,6.30
2022-09-16T03:10:05.550Z,6.70
2022-09-16T03:13:02.936Z,7.60
2022-09-16T03:15:44.086Z,5.70
2022-09-16T03:18:38.725Z,5.20
2022-09-16T03:21:22.874Z,6.10
2022-09-16T03:24:35.492Z,8.00
2022-09-16T03:27:20.863Z,6.10
2022-09-16T03:30:03.014Z,6.60
2022-09-16T03:32:44.079Z,7.50
2022-09-16T03:35:32.052Z,6.30
2022-09-16T03:38:00.357Z,6.70
2022-09-16T03:40:29.640Z,6.60
2022-09-16T03:42:58.062Z,6.10
2022-09-16T03:45:26.205Z,7.80
2022-09-16T03:47:54.410Z,7.20
2022-09-16T03:50:22.254Z,6.90
2022-09-16T03:52:50.362Z,6.30
2022-09-16T03:55:18.958Z,6.00
2022-09-16T03:57:47.347Z,6.00
2022-09-16T04:00:16.272Z,8.00
2022-09-16T04:02:44.132Z,5.90
2022-09-16T04:05:12.209Z,5.90
2022-09-16T04:07:45.527Z,6.70
2022-09-16T04:10:13.681Z,7.40
2022-09-16T04:12:41.442Z,11.80
2022-09-16T04:15:10.335Z,5.30
2022-09-16T04:17:38.315Z,6.80
2022-09-16T04:20:07.974Z,5.80
2022-09-16T04:22:36.893Z,5.50
2022-09-16T04:25:06.094Z,7.40
2022-09-16T04:27:34.180Z,7.90
2022-09-16T04:30:02.150Z,7.20
2022-09-16T04:32:30.314Z,6.00
2022-09-16T04:34:58.195Z,8.30
2022-09-16T04:37:26.264Z,7.80
2022-09-16T04:39:54.080Z,7.50
2022-09-16T04:42:24.443Z,6.70
2022-09-16T04:44:52.232Z,8.60
2022-09-16T04:47:20.073Z,6.10
2022-09-16T04:49:47.793Z,5.90
2022-09-16T04:52:16.335Z,8.50
2022-09-16T04:54:44.282Z,5.00
2022-09-16T04:57:12.354Z,5.50
2022-09-16T04:59:41.880Z,6.60
2022-09-16T05:02:09.828Z,7.80
2022-09-16T05:04:38.006Z,6.90
2022-09-16T05:07:05.927Z,6.80
2022-09-16T05:09:33.741Z,7.60
2022-09-16T05:12:02.240Z,6.30
2022-09-16T05:14:30.235Z,6.60
2022-09-16T05:16:58.405Z,5.90
2022-09-16T05:19:26.427Z,5.80
2022-09-16T05:21:54.094Z,4.80
2022-09-16T05:24:21.956Z,6.60
2022-09-16T05:26:51.268Z,6.10
2022-09-16T05:29:19.432Z,5.60
2022-09-16T05:31:47.800Z,5.10
2022-09-16T05:34:18.816Z,6.00
2022-09-16T05:36:47.884Z,6.80
2022-09-16T05:39:28.198Z,8.70
2022-09-16T05:41:59.823Z,7.50
2022-09-16T05:44:28.692Z,7.90
2022-09-16T05:46:57.125Z,4.90
2022-09-16T05:49:25.613Z,7.00
2022-09-16T05:51:54.513Z,5.50
2022-09-16T05:54:24.931Z,6.20
2022-09-16T05:56:52.899Z,6.50
2022-09-16T05:59:22.502Z,5.30
2022-09-16T06:01:50.314Z,5.70
2022-09-16T06:04:18.334Z,8.10
2022-09-16T06:06:47.950Z,5.70
2022-09-16T06:09:22.187Z,7.10
2022-09-16T06:11:52.073Z,5.80
2022-09-16T06:14:22.503Z,4.80
2022-09-16T06:16:50.984Z,5.10
2022-09-16T06:19:19.380Z,5.40
2022-09-16T06:21:49.597Z,8.20
2022-09-16T06:24:17.962Z,5.90
2022-09-16T06:26:47.112Z,6.00
2022-09-16T06:29:15.789Z,3.80
2022-09-16T06:31:43.602Z,4.90
2022-09-16T06:34:15.677Z,6.30
2022-09-16T06:36:45.310Z,5.10
2022-09-16T06:39:15.293Z,4.80
2022-09-16T06:41:44.497Z,6.00
2022-09-16T06:44:12.564Z,7.20
2022-09-16T06:46:40.943Z,5.90
2022-09-16T06:49:10.774Z,5.70
2022-09-16T06:51:39.433Z,5.40
2022-09-16T06:54:08.755Z,3.80
2022-09-16T06:56:39.637Z,4.20
2022-09-16T06:59:08.466Z,5.00
2022-09-16T07:01:36.842Z,6.70
2022-09-16T07:04:10.834Z,5.30
2022-09-16T07:07:07.433Z,5.20
2022-09-16T07:09:27.064Z,7.10
2022-09-16T07:11:55.244Z,4.70
2022-09-16T07:14:23.581Z,3.60
2022-09-16T07:16:51.943Z,5.40
2022-09-16T07:19:19.770Z,4.40
2022-09-16T07:21:47.746Z,6.00
2022-09-16T07:24:15.903Z,7.10
2022-09-16T07:26:44.296Z,6.30
2022-09-16T07:29:18.110Z,4.10
2022-09-16T07:31:46.163Z,5.20
2022-09-16T07:34:14.138Z,7.60
2022-09-16T07:36:48.793Z,7.10
2022-09-16T07:39:18.054Z,5.50
2022-09-16T07:41:48.172Z,5.80
2022-09-16T07:44:18.693Z,4.10
2022-09-16T07:46:47.873Z,7.70
2022-09-16T07:49:19.352Z,8.30
2022-09-16T07:51:47.118Z,7.10
2022-09-16T07:54:19.736Z,6.90
2022-09-16T07:56:48.163Z,3.80
2022-09-16T07:59:19.210Z,6.50
2022-09-16T08:01:49.555Z,8.10
2022-09-16T08:04:18.327Z,6.60
2022-09-16T08:06:46.513Z,8.00
2022-09-16T08:12:04.572Z,4.70
2022-09-16T08:14:36.357Z,5.70
2022-09-16T08:17:05.203Z,7.80
2022-09-16T08:19:32.963Z,5.00
2022-09-16T08:22:00.723Z,4.60
2022-09-16T08:24:29.015Z,4.10
2022-09-16T08:29:32.054Z,3.80
2022-09-16T08:31:59.798Z,6.10
2022-09-16T08:34:27.734Z,6.50
2022-09-16T08:36:55.602Z,7.00
2022-09-16T08:39:24.036Z,4.10
2022-09-16T08:42:05.773Z,8.30
2022-09-16T08:44:50.671Z,6.90
2022-09-16T08:47:35.505Z,4.70
2022-09-16T08:50:06.259Z,4.90
2022-09-16T08:52:38.919Z,5.60
2022-09-16T08:55:19.533Z,5.60
2022-09-16T08:58:21.453Z,6.90
2022-09-16T09:00:56.904Z,3.90
2022-09-16T09:03:36.563Z,5.50
2022-09-16T09:06:54.273Z,4.80
2022-09-16T09:09:50.403Z,6.80
2022-09-16T09:12:38.048Z,6.40
2022-09-16T09:15:37.370Z,4.70
2022-09-16T09:18:31.512Z,4.70
2022-09-16T09:21:35.623Z,4.40
2022-09-16T09:24:25.416Z,5.00
2022-09-16T09:27:17.935Z,3.60
2022-09-16T09:30:11.934Z,4.10
2022-09-16T09:33:02.044Z,4.70
2022-09-16T09:35:54.563Z,6.60
2022-09-16T09:39:02.543Z,6.00
2022-09-16T09:41:38.464Z,4.30
2022-09-16T09:44:31.735Z,3.70
2022-09-16T09:47:03.904Z,7.00
2022-09-16T09:49:42.482Z,5.20
2022-09-16T09:52:48.357Z,4.40
2022-09-16T09:55:20.981Z,6.20
2022-09-16T09:58:13.864Z,9.40
2022-09-16T10:00:43.405Z,4.70
2022-09-16T10:03:17.105Z,3.40
2022-09-16T10:05:46.232Z,6.60
2022-09-16T10:08:32.973Z,4.50
2022-09-16T10:11:03.382Z,4.70
2022-09-16T10:13:31.993Z,5.20
2022-09-16T10:16:21.783Z,5.20
2022-09-16T10:19:16.160Z,7.50
2022-09-16T10:22:08.187Z,3.30
2022-09-16T10:24:42.132Z,3.00
2022-09-16T10:27:40.375Z,3.70
2022-09-16T10:30:19.488Z,5.40
2022-09-16T10:32:57.909Z,3.10
2022-09-16T10:35:28.371Z,3.00
2022-09-16T10:37:59.739Z,4.50
2022-09-16T10:40:28.299Z,5.00
2022-09-16T10:43:03.430Z,8.40
2022-09-16T10:45:36.662Z,4.00
2022-09-16T10:48:08.115Z,3.30
2022-09-16T10:50:36.334Z,3.00
2022-09-16T10:53:43.885Z,4.10
2022-09-16T10:56:24.278Z,8.60
2022-09-16T10:59:15.126Z,7.90
2022-09-16T11:02:22.319Z,5.80
2022-09-16T11:05:26.094Z,2.70
2022-09-16T11:08:13.311Z,4.40
2022-09-16T11:11:16.911Z,6.30
2022-09-16T11:14:31.983Z,3.80
2022-09-16T11:17:43.170Z,5.00
2022-09-16T11:21:02.445Z,3.60
2022-09-16T11:24:04.712Z,3.60
2022-09-16T11:27:08.192Z,5.20
2022-09-16T11:30:18.371Z,4.70
2022-09-16T11:33:36.521Z,3.10
2022-09-16T11:36:26.339Z,4.30
2022-09-16T11:39:42.234Z,3.50
2022-09-16T11:42:35.257Z,4.40
2022-09-16T11:45:31.020Z,3.30
2022-09-16T11:48:44.785Z,5.40
2022-09-16T11:51:28.660Z,4.10
2022-09-16T11:54:45.881Z,2.30
2022-09-16T11:57:20.099Z,2.70
2022-09-16T12:00:10.400Z,3.30
2022-09-16T12:02:58.609Z,3.10
2022-09-16T12:05:41.769Z,3.40
2022-09-16T12:08:46.628Z,3.20
2022-09-16T12:11:43.589Z,3.00
2022-09-16T12:14:51.492Z,4.30
2022-09-16T12:17:22.632Z,2.80
2022-09-16T12:19:57.460Z,3.30
2022-09-16T12:22:28.442Z,2.90
2022-09-16T12:25:03.282Z,3.70
2022-09-16T12:28:06.500Z,3.50
2022-09-16T12:30:41.459Z,3.20
2022-09-16T12:33:20.687Z,3.90
2022-09-16T12:36:02.690Z,4.10
2022-09-16T12:38:31.120Z,3.70
2022-09-16T12:41:13.256Z,5.40
2022-09-16T12:44:41.296Z,4.50
2022-09-16T12:47:30.953Z,9.60
2022-09-16T12:50:23.341Z,5.70
2022-09-16T12:53:24.021Z,4.70
2022-09-16T12:56:16.790Z,2.40
2022-09-16T12:59:41.200Z,5.60
2022-09-16T13:02:27.350Z,5.70
2022-09-16T13:04:58.541Z,6.20
2022-09-16T13:07:32.901Z,4.50
2022-09-16T13:10:46.727Z,4.20
2022-09-16T13:13:22.819Z,3.60
2022-09-16T13:15:58.580Z,4.10
2022-09-16T13:18:46.066Z,5.70
2022-09-16T13:21:29.874Z,5.50
2022-09-16T13:24:17.812Z,5.10
2022-09-16T13:26:46.605Z,4.00
2022-09-16T13:29:30.845Z,4.90
2022-09-16T13:32:02.103Z,4.30
2022-09-16T13:34:32.963Z,2.40
2022-09-16T13:37:01.723Z,3.30
2022-09-16T13:39:32.661Z,3.40
2022-09-16T13:42:20.762Z,4.20
2022-09-16T13:44:50.132Z,2.80
2022-09-16T13:47:30.387Z,2.20
2022-09-16T13:50:14.306Z,2.90
2022-09-16T13:52:42.692Z,3.00
2022-09-16T13:55:25.816Z,4.50
2022-09-16T13:58:13.543Z,7.70
2022-09-16T14:01:10.201Z,2.90
2022-09-16T14:04:12.674Z,2.90
2022-09-16T14:07:46.365Z,3.50
2022-09-16T14:10:53.144Z,3.10
2022-09-16T14:13:23.323Z,2.70
2022-09-16T14:15:57.241Z,3.30
2022-09-16T14:18:30.983Z,3.40
2022-09-16T14:21:16.664Z,3.10
2022-09-16T14:23:45.395Z,5.50
2022-09-16T14:26:18.864Z,5.40
2022-09-16T14:28:47.326Z,3.30
2022-09-16T14:31:21.238Z,2.70
2022-09-16T14:34:04.681Z,2.70
2022-09-16T14:36:40.317Z,2.90
2022-09-16T14:39:08.458Z,5.30
2022-09-16T14:42:03.337Z,5.30
2022-09-16T14:44:37.393Z,2.60
2022-09-16T14:47:46.970Z,3.20
2022-09-16T14:50:47.382Z,4.10
2022-09-16T14:53:36.440Z,5.50
2022-09-16T14:56:19.671Z,4.60
2022-09-16T14:58:47.771Z,3.40
2022-09-16T15:01:21.508Z,4.10
2022-09-16T15:04:06.023Z,3.10
2022-09-16T15:06:40.852Z,4.10
2022-09-16T15:09:29.213Z,4.90
2022-09-16T15:11:59.224Z,5.70
2022-09-16T15:14:27.682Z,4.10
2022-09-16T15:17:03.389Z,7.00
2022-09-16T15:19:40.502Z,6.10
2022-09-16T15:22:10.873Z,5.60
2022-09-16T15:24:41.354Z,3.20
2022-09-16T15:27:09.845Z,5.10
2022-09-16T15:29:51.663Z,3.90
2022-09-16T15:32:24.232Z,6.60
2022-09-16T15:35:23.372Z,7.20
2022-09-16T15:37:55.685Z,6.30
2022-09-16T15:40:35.444Z,3.80
2022-09-16T15:43:29.416Z,4.40
2022-09-16T15:46:10.924Z,4.40
2022-09-16T15:48:55.507Z,5.90
2022-09-16T15:51:36.511Z,6.60
2022-09-16T15:54:33.362Z,5.60
2022-09-16T15:57:18.612Z,6.00
2022-09-16T16:00:15.798Z,7.20
2022-09-16T16:03:01.356Z,6.80
2022-09-16T16:05:30.957Z,6.30
2022-09-16T16:08:07.470Z,7.80
2022-09-16T16:10:40.157Z,8.90
2022-09-16T16:13:08.512Z,6.40
2022-09-16T16:15:38.171Z,6.30
2022-09-16T16:18:07.974Z,7.60
2022-09-16T16:20:37.144Z,6.30
2022-09-16T16:23:06.242Z,5.70
2022-09-16T16:25:34.396Z,7.70
2022-09-16T16:28:02.574Z,9.10
2022-09-16T16:30:31.366Z,9.60
2022-09-16T16:32:59.537Z,7.70
2022-09-16T16:35:27.493Z,6.30
2022-09-16T16:37:55.077Z,8.30
2022-09-16T16:40:24.124Z,7.80
2022-09-16T16:42:52.462Z,7.70
2022-09-16T16:45:21.130Z,7.70
2022-09-16T16:47:49.301Z,8.90
2022-09-16T16:50:17.467Z,8.10
2022-09-16T16:52:45.908Z,8.20
2022-09-16T16:55:15.385Z,12.20
2022-09-16T16:57:44.064Z,9.60
2022-09-16T17:00:14.256Z,6.60
2022-09-16T17:02:43.499Z,5.10
2022-09-16T17:05:12.870Z,4.60
2022-09-16T17:07:40.929Z,5.70
2022-09-16T17:10:10.954Z,7.90
2022-09-16T17:12:39.127Z,9.50
2022-09-16T17:15:21.605Z,22.00
2022-09-16T17:17:49.696Z,15.50
2022-09-16T17:20:30.055Z,11.80
2022-09-16T17:23:18.112Z,11.50
2022-09-16T17:26:13.227Z,15.60
2022-09-16T17:28:57.607Z,17.70
2022-09-16T17:31:29.656Z,16.30
2022-09-16T17:34:02.741Z,14.70
2022-09-16T17:36:36.066Z,13.90
2022-09-16T17:39:07.945Z,15.10
2022-09-16T17:41:39.511Z,11.80
2022-09-16T17:44:08.623Z,10.10
2022-09-16T17:46:37.283Z,11.50
2022-09-16T17:49:08.954Z,10.00
2022-09-16T17:51:37.872Z,15.20
2022-09-16T17:54:09.332Z,11.30
2022-09-16T17:56:45.687Z,15.00
2022-09-16T17:59:18.783Z,16.50
2022-09-16T18:02:22.418Z,17.00
2022-09-16T18:04:59.427Z,15.50
2022-09-16T18:07:28.172Z,13.10
2022-09-16T18:09:56.900Z,12.10
2022-09-16T18:12:43.679Z,11.20
2022-09-16T18:15:35.750Z,11.00
2022-09-16T18:18:11.505Z,11.40
2022-09-16T18:20:44.441Z,9.50
2022-09-16T18:23:21.687Z,11.30
2022-09-16T18:25:53.669Z,9.00
2022-09-16T18:29:08.009Z,10.30
2022-09-16T18:31:35.474Z,9.80
2022-09-16T18:34:09.051Z,7.40
2022-09-16T18:36:38.852Z,8.80
2022-09-16T18:39:07.799Z,10.00
2022-09-16T18:41:45.006Z,9.90
2022-09-16T18:44:25.829Z,9.70
2022-09-16T18:46:59.003Z,8.20
2022-09-16T18:49:31.173Z,9.80
2022-09-16T18:51:59.301Z,10.90
2022-09-16T18:54:29.184Z,8.50
2022-09-16T18:57:00.034Z,10.70
2022-09-16T18:59:32.050Z,8.50
2022-09-16T19:02:11.239Z,8.80
2022-09-16T19:04:41.538Z,7.70
2022-09-16T19:07:17.182Z,8.30
2022-09-16T19:09:47.301Z,9.00
2022-09-16T19:12:15.960Z,8.30
2022-09-16T19:14:44.500Z,9.70
2022-09-16T19:17:21.432Z,8.10
2022-09-16T19:19:52.067Z,9.40
2022-09-16T19:22:20.121Z,8.50
2022-09-16T19:24:49.325Z,8.30
2022-09-16T19:27:18.115Z,8.70
2022-09-16T19:29:46.570Z,7.90
2022-09-16T19:32:14.492Z,6.80
2022-09-16T19:34:49.590Z,8.50
2022-09-16T19:37:21.188Z,8.40
2022-09-16T19:39:50.386Z,10.00
2022-09-16T19:42:22.410Z,8.40
2022-09-16T19:44:50.992Z,7.00
2022-09-16T19:47:19.384Z,7.30
2022-09-16T19:49:48.250Z,6.90
2022-09-16T19:52:16.749Z,7.60
2022-09-16T19:54:47.146Z,6.30
2022-09-16T19:57:15.851Z,6.80
2022-09-16T19:59:49.003Z,7.60
2022-09-16T20:02:22.365Z,6.00
2022-09-16T20:04:54.410Z,6.30
2022-09-16T20:07:23.318Z,6.60
2022-09-16T20:09:52.846Z,7.20
2022-09-16T20:12:23.898Z,7.70
2022-09-16T20:14:52.021Z,7.10
2022-09-16T20:17:21.452Z,7.80
2022-09-16T20:19:50.522Z,5.90
2022-09-16T20:22:39.989Z,7.80
2022-09-16T20:25:23.035Z,6.50
2022-09-16T20:27:58.281Z,7.50
2022-09-16T20:30:26.840Z,5.40
2022-09-16T20:32:58.891Z,7.90
2022-09-16T20:35:29.710Z,6.50
2022-09-16T20:38:19.810Z,5.60
2022-09-16T20:40:49.010Z,7.50
2022-09-16T20:43:20.821Z,5.60
2022-09-16T20:45:49.389Z,5.60
2022-09-16T20:48:17.737Z,7.30
2022-09-16T20:50:50.002Z,7.20
2022-09-16T20:53:19.079Z,6.70
2022-09-16T20:55:50.349Z,6.90
2022-09-16T20:58:25.810Z,6.80
2022-09-16T21:00:54.638Z,6.20
2022-09-16T21:03:23.275Z,7.00
2022-09-16T21:06:16.900Z,4.80
2022-09-16T21:08:45.001Z,6.30
2022-09-16T21:11:19.623Z,6.30
2022-09-16T21:14:01.238Z,5.60
2022-09-16T21:16:32.508Z,7.30
2022-09-16T21:19:05.274Z,5.40
2022-09-16T21:21:33.921Z,5.70
2022-09-16T21:24:07.174Z,4.60
2022-09-16T21:26:40.520Z,6.80
2022-09-16T21:29:20.991Z,6.50
2022-09-16T21:31:49.520Z,5.80
2022-09-16T21:34:43.036Z,7.60
2022-09-16T21:37:11.506Z,6.40
2022-09-16T21:39:40.316Z,4.90
2022-09-16T21:42:08.275Z,7.90
2022-09-16T21:44:37.064Z,7.70
2022-09-16T21:47:11.472Z,7.50
2022-09-16T21:49:41.592Z,5.40
2022-09-16T21:52:10.509Z,6.10
2022-09-16T21:54:38.660Z,6.20
2022-09-16T21:57:06.946Z,5.20
2022-09-16T21:59:35.005Z,5.40
2022-09-16T22:02:04.018Z,6.00
2022-09-16T22:04:37.130Z,5.50
2022-09-16T22:07:05.258Z,5.30
2022-09-16T22:09:33.525Z,5.80
2022-09-16T22:12:03.056Z,4.70
2022-09-16T22:14:31.414Z,5.60
2022-09-16T22:16:59.435Z,5.60
2022-09-16T22:19:27.461Z,4.90
2022-09-16T22:21:56.532Z,4.70
2022-09-16T22:24:24.831Z,5.50
2022-09-16T22:26:53.920Z,7.90
2022-09-16T22:29:24.455Z,6.80
2022-09-16T22:31:55.632Z,5.30
2022-09-16T22:34:24.186Z,6.30
2022-09-16T22:36:52.973Z,5.00
2022-09-16T22:39:21.450Z,5.60
2022-09-16T22:41:49.837Z,4.60
2022-09-16T22:44:23.418Z,7.10
2022-09-16T22:46:51.641Z,6.10
2022-09-16T22:49:22.458Z,5.20
2022-09-16T22:51:53.032Z,6.90
2022-09-16T22:54:23.814Z,7.80
2022-09-16T22:56:52.805Z,6.40
2022-09-16T22:59:23.234Z,6.00
2022-09-16T23:01:52.556Z,5.50
2022-09-16T23:04:24.745Z,5.60
2022-09-16T23:06:55.150Z,5.30
2022-09-16T23:09:23.704Z,6.80
2022-09-16T23:11:52.098Z,7.60
2022-09-16T23:14:21.707Z,5.50
2022-09-16T23:16:49.750Z,5.80
2022-09-16T23:19:23.677Z,6.30
2022-09-16T23:21:52.260Z,4.60
2022-09-16T23:24:23.889Z,7.90
2022-09-16T23:26:51.808Z,6.80
2022-09-16T23:29:19.745Z,6.80
2022-09-16T23:31:49.242Z,5.40
2022-09-16T23:34:20.335Z,7.80
2022-09-16T23:36:48.560Z,6.30
2022-09-16T23:39:17.770Z,6.70
2022-09-16T23:41:46.442Z,6.60
2022-09-16T23:44:15.646Z,4.40
2022-09-16T23:46:45.240Z,6.40
2022-09-16T23:49:13.740Z,6.80
2022-09-16T23:51:41.694Z,5.30
2022-09-16T23:54:09.456Z,5.40
2022-09-16T23:56:37.215Z,7.60
2022-09-16T23:59:04.880Z,7.80
